Saint Francisville, Louisiana
Current Conditions -  °F | °C
As of 3:15 PM on Saturday 22 Nov 2014 (Local Time) from KHZR Reporting Station
Broken Clouds Broken Clouds  
Wind Chill: 68°   Ceiling: 4800
Heat Index: 68°   Visibility: 10mi
Dew Point: 59°   Wind: 9mph
Humidity: 72%   Direction: 100°E
Pressure: 30.03"   Gusts: 18mph
Location:  30.78°N, 91.38°W
Report Text: KHZR 222115Z AUTO 10008G16KT 10SM SCT024 BKN048 BKN055 20/15 A3003 RMK AO2 LTG DSNT W T02010150
Loading
Personal Weather Stations






























Interactive Weather Map New forecast layout! Learn more

10-Day Weather Forecast

Advertisements
Track Severe Weather on mobile